»·PEaware :: N75232 KLAX-KSNA

N75232 :: KLAX-KSNA

FLIGHT INFORMATION

Flight Status: Arrived
Operator: Privately registered:
United States
More flights under this callsign
Pilot: Daniel B. (28719)
Aircraft: CESSNA 172 SKYHAWK
(C172)
More flights by this aircraft type
Origin: KLAX Los Angeles Intl
United States
Destination: KSNA John Wayne-Orange Co
United States
More flights between these airports :: More routes between these airports
Route: SLI8 SLI
File this flight plan on PilotEdge
Remarks:
Altitude:
(Current/Filed)
4,000ft
Speed:
(Current/Filed)
115kts
Departed: 26-Jul-20 08:21 PM
Arrived: 26-Jul-20 09:14 PM
Distance/Time
Traveled:
32nm/0:53
Distance/Time
To Go:
Arrived

Flight Plot

Page will automatically refresh every two minutes.

Flight plan parsing failed; only flown route is shown


Map Options




Map Legend


Flown Route
Filed Route
Departure Airport
Arrival Airport
Navaid (VOR, NDB)
Fix

Horizontal Profiles

Position Reports

Time Latitude Longitude Heading Altitude Ground
Speed
26-Jul-20 20:01 33.932697 -118.398060 354 110ft 0kts
26-Jul-20 20:02 33.932697 -118.398060 354 110ft 0kts
26-Jul-20 20:03 33.932697 -118.398060 354 110ft 0kts
26-Jul-20 20:04 33.932697 -118.398060 354 110ft 0kts
26-Jul-20 20:05 33.932697 -118.398060 354 110ft 0kts
26-Jul-20 20:06 33.932697 -118.398060 354 110ft 0kts
26-Jul-20 20:07 33.932697 -118.398060 354 110ft 0kts
26-Jul-20 20:08 33.932697 -118.398060 354 110ft 0kts
26-Jul-20 20:09 33.932697 -118.398060 354 110ft 0kts
26-Jul-20 20:10 33.932697 -118.398060 354 110ft 0kts
26-Jul-20 20:11 33.932777 -118.398157 214 110ft 3kts
26-Jul-20 20:12 33.933863 -118.398299 15 109ft 6kts
26-Jul-20 20:13 33.934781 -118.395951 82 106ft 24kts
26-Jul-20 20:14 33.935248 -118.391418 82 102ft 27kts
26-Jul-20 20:15 33.935753 -118.386459 81 99ft 29kts
26-Jul-20 20:16 33.936466 -118.382837 8 96ft 0kts
26-Jul-20 20:17 33.936466 -118.382837 8 96ft 0kts
26-Jul-20 20:18 33.936466 -118.382837 8 96ft 0kts
26-Jul-20 20:19 33.936803 -118.382854 354 96ft 11kts
26-Jul-20 20:20 33.936792 -118.393225 267 347ft 71kts
26-Jul-20 20:21 33.936642 -118.413596 267 1157ft 72kts
26-Jul-20 20:22 33.936457 -118.440311 268 2182ft 74kts
26-Jul-20 20:23 33.930235 -118.460936 176 3134ft 75kts
26-Jul-20 20:24 33.911460 -118.454710 151 3817ft 86kts
26-Jul-20 20:25 33.896853 -118.438295 145 4070ft 111kts
26-Jul-20 20:26 33.878885 -118.419678 148 4023ft 119kts
26-Jul-20 20:27 33.861594 -118.400890 145 4012ft 122kts
26-Jul-20 20:28 33.843314 -118.382013 146 4021ft 121kts
26-Jul-20 20:29 33.824915 -118.362894 147 3978ft 122kts
26-Jul-20 20:30 33.806928 -118.344290 146 4008ft 120kts
26-Jul-20 20:31 33.789048 -118.325575 146 4022ft 119kts
26-Jul-20 20:32 33.770868 -118.304820 126 4013ft 127kts
26-Jul-20 20:33 33.769733 -118.274839 92 4021ft 133kts
26-Jul-20 20:34 33.770434 -118.245486 92 4026ft 133kts
26-Jul-20 20:35 33.771438 -118.215534 92 4038ft 133kts
26-Jul-20 20:36 33.772294 -118.184834 92 4017ft 134kts
26-Jul-20 20:37 33.773930 -118.155689 83 4054ft 133kts
26-Jul-20 20:38 33.777769 -118.128548 87 4036ft 134kts
26-Jul-20 20:39 33.779917 -118.101474 88 4045ft 133kts
26-Jul-20 20:40 33.781560 -118.075084 90 4012ft 135kts
26-Jul-20 20:41 33.787422 -118.050658 68 4013ft 136kts
26-Jul-20 20:42 33.795658 -118.028148 69 4036ft 135kts
26-Jul-20 20:43 33.803215 -118.006133 69 4041ft 135kts
26-Jul-20 20:44 33.810981 -117.984590 69 4035ft 136kts
26-Jul-20 20:45 33.819292 -117.962655 65 4045ft 136kts
26-Jul-20 20:46 33.828156 -117.940002 69 4050ft 136kts
26-Jul-20 20:47 33.837178 -117.915265 68 4048ft 136kts
26-Jul-20 20:48 33.847351 -117.889631 67 4038ft 136kts
26-Jul-20 20:49 33.857945 -117.862389 65 3995ft 138kts
26-Jul-20 20:50 33.870287 -117.832743 64 3960ft 138kts
26-Jul-20 20:51 33.881731 -117.800786 71 3966ft 136kts
26-Jul-20 20:52 33.894697 -117.768193 67 4014ft 134kts
26-Jul-20 20:53 33.909915 -117.735969 60 4046ft 136kts
26-Jul-20 20:54 33.929340 -117.710648 25 4037ft 136kts
26-Jul-20 20:55 33.951881 -117.696177 23 3541ft 125kts
26-Jul-20 20:56 33.969949 -117.701352 279 3568ft 90kts
26-Jul-20 20:57 33.951214 -117.705167 170 3597ft 100kts
26-Jul-20 20:58 33.928101 -117.708705 214 3553ft 97kts
26-Jul-20 20:59 33.909268 -117.722465 208 3525ft 98kts
26-Jul-20 21:00 33.890683 -117.733347 205 3526ft 100kts
26-Jul-20 21:01 33.872633 -117.745243 211 3509ft 102kts
26-Jul-20 21:02 33.854304 -117.756741 209 3508ft 103kts
26-Jul-20 21:03 33.836176 -117.767876 213 3511ft 102kts
26-Jul-20 21:04 33.819487 -117.778603 206 3239ft 99kts
26-Jul-20 21:05 33.803181 -117.788311 211 2866ft 100kts
26-Jul-20 21:06 33.788499 -117.798309 213 2540ft 101kts
26-Jul-20 21:07 33.773274 -117.807290 209 2148ft 93kts
26-Jul-20 21:08 33.758351 -117.816858 213 1807ft 88kts
26-Jul-20 21:09 33.743554 -117.825917 209 1463ft 88kts
26-Jul-20 21:10 33.727976 -117.836356 211 1129ft 91kts
26-Jul-20 21:11 33.710352 -117.846887 210 738ft 95kts
26-Jul-20 21:12 33.691040 -117.859112 208 321ft 95kts
26-Jul-20 21:13 33.678118 -117.867271 211 60ft 30kts
26-Jul-20 21:14 33.677391 -117.866779 118 60ft 0kts
26-Jul-20 21:15 33.676497 -117.865574 204 60ft 8kts
26-Jul-20 21:16 33.673488 -117.866850 125 60ft 6kts
26-Jul-20 21:18 33.672972 -117.865773 116 60ft 0kts
26-Jul-20 21:19 33.672972 -117.865773 116 60ft 0kts

Navigation Log

Ident Type
Flight plan parsing failed, navigation log unavailable